Time;durP1;ratioP1;P1;durP2;ratioP2;P2;SDS_P1;SDS_P2;PMS_P1;PMS_P2;Temp;Humidity;BMP_temperature;BMP_pressure;BME280_temperature;BME280_humidity;BME280_pressure;Samples;Min_cycle;Max_cycle;Signal;HPM_P1;HPM_P2
2021/12/27 00:01:50;;;;;;;;;;;5.90;99.90;;;;;;4971559;28;19926;-89
2021/12/27 00:04:17;;;;;;;;;;;5.50;99.90;;;;;;4989879;28;19929;-87
2021/12/27 00:06:44;;;;;;;;;;;5.50;99.90;;;;;;5014076;28;19920;-88
2021/12/27 00:09:10;;;;;;;;;;;6.30;99.90;;;;;;5012492;28;19910;-88
2021/12/27 00:11:39;;;;;;;;;;;5.50;99.90;;;;;;4991720;28;20115;-89
2021/12/27 00:14:06;;;;;;;;;;;5.40;99.90;;;;;;4976368;28;19972;-89
2021/12/27 00:16:33;;;;;;;;;;;5.40;99.90;;;;;;4988218;28;19972;-89
2021/12/27 00:19:01;;;;;;;;;;;5.40;99.90;;;;;;4978608;28;19936;-89
2021/12/27 00:21:28;;;;;;;;;;;5.40;99.90;;;;;;4993017;28;19932;-88
2021/12/27 00:23:55;;;;;;;;;;;5.40;99.90;;;;;;4990775;28;19975;-89
2021/12/27 00:26:22;;;;;;;;;;;5.50;99.90;;;;;;4993162;28;19932;-89
2021/12/27 00:28:50;;;;;;;;;;;5.50;99.90;;;;;;5009259;28;19957;-88
2021/12/27 00:31:17;;;;;;;;;;;5.50;99.90;;;;;;4996245;28;19926;-88
2021/12/27 00:33:44;;;;;;;;;;;5.50;99.90;;;;;;4984479;28;19926;-90
2021/12/27 00:36:14;;;;;;;;;;;5.50;99.90;;;;;;4993042;28;20013;-89
2021/12/27 00:38:41;;;;;;;;;;;5.50;99.90;;;;;;4995010;28;19922;-88
2021/12/27 00:41:07;;;;;;;;;;;5.40;99.90;;;;;;4995475;28;20422;-89
2021/12/27 00:43:34;;;;;;;;;;;5.50;99.90;;;;;;5000105;28;19931;-88
2021/12/27 00:46:01;;;;;;;;;;;5.50;99.90;;;;;;4992946;28;19922;-89
2021/12/27 00:48:27;;;;;;;;;;;5.50;99.90;;;;;;4977173;28;19936;-89
2021/12/27 00:50:54;;;;;;;;;;;5.50;99.90;;;;;;4991055;28;19922;-88
2021/12/27 00:53:22;;;;;;;;;;;5.60;99.90;;;;;;4991804;28;19928;-88
2021/12/27 00:55:49;;;;;;;;;;;5.50;99.90;;;;;;4979201;28;19922;-88
2021/12/27 00:58:19;;;;;;;;;;;6.90;99.90;;;;;;4995734;28;19925;-89
2021/12/27 01:00:46;;;;;;;;;;;6.00;99.90;;;;;;4994156;28;19936;-88
2021/12/27 01:03:13;;;;;;;;;;;6.70;99.90;;;;;;4984842;28;19929;-89
2021/12/27 01:05:39;;;;;;;;;;;8.70;99.90;;;;;;4993215;28;19928;-88
2021/12/27 01:08:07;;;;;;;;;;;5.60;99.90;;;;;;4990956;28;19921;-90
2021/12/27 01:13:26;;;;;;;;;;;5.70;99.90;;;;;;4959360;28;20397;-89
2021/12/27 01:16:10;;;;;;;;;;;5.70;99.90;;;;;;4983531;28;19925;-89
2021/12/27 01:18:38;;;;;;;;;;;5.70;99.90;;;;;;4979251;28;19926;-88
2021/12/27 01:21:04;;;;;;;;;;;5.70;99.90;;;;;;4976096;28;20413;-88
2021/12/27 01:23:31;;;;;;;;;;;5.70;99.90;;;;;;4991576;28;19926;-89
2021/12/27 01:25:59;;;;;;;;;;;5.70;99.90;;;;;;4969504;28;20737;-88
2021/12/27 01:28:26;;;;;;;;;;;5.70;99.90;;;;;;4994956;28;19925;-88
2021/12/27 01:30:53;;;;;;;;;;;5.60;99.90;;;;;;4985311;28;19961;-88
2021/12/27 01:33:21;;;;;;;;;;;5.60;99.90;;;;;;4982316;28;19922;-89
2021/12/27 01:35:48;;;;;;;;;;;5.60;99.90;;;;;;4994087;28;19925;-88
2021/12/27 01:38:15;;;;;;;;;;;6.70;99.90;;;;;;4989102;28;19972;-88
2021/12/27 01:40:43;;;;;;;;;;;5.60;99.90;;;;;;4976226;28;19988;-88
2021/12/27 01:43:12;;;;;;;;;;;5.60;99.90;;;;;;4976441;28;20318;-89
2021/12/27 01:45:39;;;;;;;;;;;6.80;99.90;;;;;;4991309;28;19936;-89
2021/12/27 01:48:07;;;;;;;;;;;5.50;99.90;;;;;;4978138;28;20511;-90
2021/12/27 01:50:35;;;;;;;;;;;5.50;99.90;;;;;;4973534;28;19953;-89
2021/12/27 01:53:02;;;;;;;;;;;5.40;99.90;;;;;;4990449;28;19952;-89
2021/12/27 01:55:29;;;;;;;;;;;5.40;99.90;;;;;;4974239;28;19930;-89
2021/12/27 01:57:55;;;;;;;;;;;5.40;99.90;;;;;;4990740;28;19925;-88
2021/12/27 02:00:23;;;;;;;;;;;5.40;99.90;;;;;;4970738;28;19925;-88
2021/12/27 02:02:50;;;;;;;;;;;7.30;99.90;;;;;;4977304;28;19929;-88
2021/12/27 02:05:17;;;;;;;;;;;5.40;99.90;;;;;;4992487;28;20301;-89
2021/12/27 02:07:44;;;;;;;;;;;5.50;99.90;;;;;;4979995;28;19930;-88
2021/12/27 02:10:12;;;;;;;;;;;5.50;99.90;;;;;;4987221;28;19923;-87
2021/12/27 02:12:39;;;;;;;;;;;5.50;99.90;;;;;;5001554;28;20393;-88
2021/12/27 02:15:09;;;;;;;;;;;5.40;99.90;;;;;;4975367;28;19926;-88
2021/12/27 02:17:38;;;;;;;;;;;5.40;99.90;;;;;;4992066;28;19932;-89
2021/12/27 02:20:07;;;;;;;;;;;5.40;99.90;;;;;;4992332;28;19921;-89
2021/12/27 02:22:37;;;;;;;;;;;5.40;99.90;;;;;;4991784;28;19922;-89
2021/12/27 02:25:05;;;;;;;;;;;5.50;99.90;;;;;;4988193;28;19925;-89
2021/12/27 02:27:32;;;;;;;;;;;5.50;99.90;;;;;;4989343;28;19933;-89
2021/12/27 02:29:58;;;;;;;;;;;5.50;99.90;;;;;;4973564;28;19925;-89
2021/12/27 02:32:25;;;;;;;;;;;5.50;99.90;;;;;;4989324;28;19925;-89
2021/12/27 02:34:52;;;;;;;;;;;5.50;99.90;;;;;;4993648;28;19925;-89
2021/12/27 02:37:21;;;;;;;;;;;5.60;99.90;;;;;;4975526;28;19978;-89
2021/12/27 02:39:48;;;;;;;;;;;5.60;99.90;;;;;;5005510;28;19932;-87
2021/12/27 02:42:16;;;;;;;;;;;5.70;99.90;;;;;;5011355;28;19922;-90
2021/12/27 02:44:43;;;;;;;;;;;5.60;99.90;;;;;;5010588;28;19925;-88
2021/12/27 02:47:10;;;;;;;;;;;5.70;99.90;;;;;;5006686;28;19936;-89
2021/12/27 02:49:38;;;;;;;;;;;5.70;99.90;;;;;;4992322;28;20048;-87
2021/12/27 02:52:06;;;;;;;;;;;5.70;99.90;;;;;;4996028;28;19928;-87
2021/12/27 02:54:36;;;;;;;;;;;5.80;99.90;;;;;;5001671;28;19917;-87
2021/12/27 02:57:02;;;;;;;;;;;5.80;99.90;;;;;;4998653;28;20691;-88
2021/12/27 02:59:29;;;;;;;;;;;5.70;99.90;;;;;;4988914;28;19933;-88
2021/12/27 03:01:56;;;;;;;;;;;5.70;99.90;;;;;;4990062;28;19926;-88
2021/12/27 03:04:23;;;;;;;;;;;5.60;99.90;;;;;;4985767;28;19929;-86
2021/12/27 03:06:49;;;;;;;;;;;5.60;99.90;;;;;;4983150;28;19959;-89
2021/12/27 03:09:16;;;;;;;;;;;5.50;99.90;;;;;;4989778;28;19932;-89
2021/12/27 03:11:44;;;;;;;;;;;6.40;99.90;;;;;;4989430;28;20016;-89
2021/12/27 03:14:11;;;;;;;;;;;5.60;99.90;;;;;;4971650;28;19921;-89
2021/12/27 03:16:38;;;;;;;;;;;5.60;99.90;;;;;;4971927;28;19926;-88
2021/12/27 03:19:05;;;;;;;;;;;5.60;99.90;;;;;;4974332;28;19926;-89
2021/12/27 03:21:32;;;;;;;;;;;5.60;99.90;;;;;;4970405;28;19921;-89
2021/12/27 03:23:58;;;;;;;;;;;5.60;99.90;;;;;;4982814;28;20026;-89
2021/12/27 03:26:25;;;;;;;;;;;5.50;99.90;;;;;;4972676;28;19921;-89
2021/12/27 03:28:53;;;;;;;;;;;5.60;99.90;;;;;;4976846;28;20385;-89
2021/12/27 03:31:20;;;;;;;;;;;5.60;99.90;;;;;;4987756;28;19979;-89
2021/12/27 03:33:47;;;;;;;;;;;5.60;99.90;;;;;;4995136;28;20036;-89
2021/12/27 03:36:14;;;;;;;;;;;5.60;99.90;;;;;;4993831;28;19956;-88
2021/12/27 03:38:42;;;;;;;;;;;5.60;99.90;;;;;;5005734;28;19917;-88
2021/12/27 03:41:10;;;;;;;;;;;5.60;99.90;;;;;;4999278;28;19936;-88
2021/12/27 03:43:37;;;;;;;;;;;5.60;99.90;;;;;;4992335;28;20376;-88
2021/12/27 03:46:05;;;;;;;;;;;5.60;99.90;;;;;;5008168;28;20009;-88
2021/12/27 03:48:32;;;;;;;;;;;5.60;99.90;;;;;;4993633;28;19913;-87
2021/12/27 03:50:59;;;;;;;;;;;5.60;99.90;;;;;;5011418;28;19977;-88
2021/12/27 03:53:26;;;;;;;;;;;5.60;99.90;;;;;;5010636;28;19997;-88
2021/12/27 03:55:53;;;;;;;;;;;5.70;99.90;;;;;;5010422;28;19909;-88
2021/12/27 03:58:27;;;;;;;;;;;5.70;99.90;;;;;;5011202;28;20211;-88
2021/12/27 04:01:03;;;;;;;;;;;5.80;99.90;;;;;;4992601;28;19922;-89
2021/12/27 04:03:32;;;;;;;;;;;5.80;99.90;;;;;;4997500;28;19984;-88
2021/12/27 04:05:59;;;;;;;;;;;5.80;99.90;;;;;;5014649;28;19922;-88
2021/12/27 04:08:26;;;;;;;;;;;5.90;99.90;;;;;;4992053;28;19929;-88
2021/12/27 04:10:54;;;;;;;;;;;5.90;99.90;;;;;;5023586;28;20420;-88
2021/12/27 04:13:21;;;;;;;;;;;5.90;99.90;;;;;;4999494;28;19921;-88
2021/12/27 04:15:49;;;;;;;;;;;6.00;99.90;;;;;;5016142;28;19959;-88
2021/12/27 04:18:16;;;;;;;;;;;5.90;99.90;;;;;;4998921;28;19921;-88
2021/12/27 04:20:45;;;;;;;;;;;6.00;99.90;;;;;;5005069;28;19985;-88
2021/12/27 04:23:12;;;;;;;;;;;6.00;99.90;;;;;;5013029;28;19981;-88
2021/12/27 04:25:39;;;;;;;;;;;6.10;99.90;;;;;;5015207;28;19985;-88
2021/12/27 04:28:05;;;;;;;;;;;6.10;99.90;;;;;;5003199;28;19914;-88
2021/12/27 04:30:34;;;;;;;;;;;6.10;99.90;;;;;;5016834;28;19925;-88
2021/12/27 04:33:01;;;;;;;;;;;6.10;99.90;;;;;;5012259;28;19918;-88
2021/12/27 04:35:28;;;;;;;;;;;6.20;99.90;;;;;;5016099;28;19924;-88
2021/12/27 04:37:56;;;;;;;;;;;6.10;99.90;;;;;;5018371;28;19910;-88
2021/12/27 04:40:24;;;;;;;;;;;6.20;99.90;;;;;;5017465;28;19909;-88
2021/12/27 04:43:00;;;;;;;;;;;6.30;99.90;;;;;;5017162;28;19910;-87
2021/12/27 04:45:26;;;;;;;;;;;6.20;99.90;;;;;;5016314;28;19993;-87
2021/12/27 04:47:53;;;;;;;;;;;6.10;99.90;;;;;;5001734;28;19935;-87
2021/12/27 04:50:21;;;;;;;;;;;7.10;99.90;;;;;;5019004;28;19983;-88
2021/12/27 04:52:48;;;;;;;;;;;6.20;99.90;;;;;;5002439;28;19952;-88
2021/12/27 04:55:16;;;;;;;;;;;6.20;99.90;;;;;;5007806;28;19916;-88
2021/12/27 04:57:43;;;;;;;;;;;6.20;99.90;;;;;;5017922;28;19909;-87
2021/12/27 05:00:10;;;;;;;;;;;6.20;99.90;;;;;;5017997;28;20514;-88
2021/12/27 05:02:36;;;;;;;;;;;6.30;99.90;;;;;;5016297;28;19910;-87
2021/12/27 05:05:03;;;;;;;;;;;6.20;99.90;;;;;;5016781;28;19981;-87
2021/12/27 05:07:30;;;;;;;;;;;6.30;99.90;;;;;;5013023;28;19922;-88
2021/12/27 05:09:57;;;;;;;;;;;6.30;99.90;;;;;;4996849;28;19952;-88
2021/12/27 05:12:30;;;;;;;;;;;6.40;99.90;;;;;;5017547;28;20871;-87
2021/12/27 05:14:57;;;;;;;;;;;6.40;99.90;;;;;;5017873;28;20066;-87
2021/12/27 05:17:24;;;;;;;;;;;6.40;99.90;;;;;;5017919;28;19925;-88
2021/12/27 05:19:50;;;;;;;;;;;6.40;99.90;;;;;;5012300;28;19910;-88
2021/12/27 05:22:17;;;;;;;;;;;6.40;99.90;;;;;;4988202;28;19928;-89
2021/12/27 05:24:44;;;;;;;;;;;6.40;99.90;;;;;;4977309;28;19926;-89
2021/12/27 05:27:10;;;;;;;;;;;6.40;99.90;;;;;;4983994;28;19936;-88
2021/12/27 05:29:38;;;;;;;;;;;6.30;99.90;;;;;;4979165;28;19922;-89
2021/12/27 05:32:05;;;;;;;;;;;6.30;99.90;;;;;;4974863;28;20382;-89
2021/12/27 05:34:32;;;;;;;;;;;6.30;99.90;;;;;;4993530;28;19929;-88
2021/12/27 05:36:59;;;;;;;;;;;6.30;99.90;;;;;;4992276;28;19933;-89
2021/12/27 05:39:26;;;;;;;;;;;6.30;99.90;;;;;;5009914;28;19933;-87
2021/12/27 05:41:53;;;;;;;;;;;6.20;99.90;;;;;;5000566;28;19945;-87
2021/12/27 05:44:19;;;;;;;;;;;6.20;99.90;;;;;;4998380;28;19910;-88
2021/12/27 05:46:47;;;;;;;;;;;6.20;99.90;;;;;;4985874;28;19929;-88
2021/12/27 05:49:15;;;;;;;;;;;6.20;99.90;;;;;;4994957;28;19926;-88
2021/12/27 05:51:43;;;;;;;;;;;6.20;99.90;;;;;;4997709;28;20397;-88
2021/12/27 05:54:10;;;;;;;;;;;6.10;99.90;;;;;;4985571;28;19977;-88
2021/12/27 05:56:37;;;;;;;;;;;6.20;99.90;;;;;;4999820;28;19985;-88
2021/12/27 05:59:04;;;;;;;;;;;6.20;99.90;;;;;;5016444;28;19975;-88
2021/12/27 06:01:31;;;;;;;;;;;6.20;99.90;;;;;;4996289;28;19932;-88
2021/12/27 06:03:59;;;;;;;;;;;6.20;99.90;;;;;;4985400;28;19940;-88
2021/12/27 06:06:26;;;;;;;;;;;6.20;99.90;;;;;;5002648;28;20455;-88
2021/12/27 06:08:52;;;;;;;;;;;6.20;99.90;;;;;;4989712;28;19937;-88
2021/12/27 06:11:20;;;;;;;;;;;6.20;99.90;;;;;;4999138;28;19931;-88
2021/12/27 06:13:46;;;;;;;;;;;6.70;99.90;;;;;;4980179;28;19925;-89
2021/12/27 06:16:14;;;;;;;;;;;6.30;99.90;;;;;;4988025;28;19932;-89
2021/12/27 06:18:40;;;;;;;;;;;8.30;99.90;;;;;;4993460;28;19922;-88
2021/12/27 06:21:09;;;;;;;;;;;6.40;99.90;;;;;;4977371;28;19932;-88
2021/12/27 06:23:36;;;;;;;;;;;6.40;99.90;;;;;;4991775;28;19922;-89
2021/12/27 06:26:02;;;;;;;;;;;6.60;99.90;;;;;;4986393;28;19925;-89
2021/12/27 06:28:31;;;;;;;;;;;6.50;99.90;;;;;;4989589;28;19922;-89
2021/12/27 06:30:58;;;;;;;;;;;6.50;99.90;;;;;;4990794;28;20658;-89
2021/12/27 06:33:25;;;;;;;;;;;6.60;99.90;;;;;;4989722;28;20401;-89
2021/12/27 06:35:52;;;;;;;;;;;6.60;99.90;;;;;;4992431;28;20468;-88
2021/12/27 06:38:21;;;;;;;;;;;6.60;99.90;;;;;;4974215;28;19926;-88
2021/12/27 06:40:47;;;;;;;;;;;8.60;99.90;;;;;;4989217;28;20011;-89
2021/12/27 06:43:15;;;;;;;;;;;6.60;99.90;;;;;;4990699;28;20011;-88
2021/12/27 06:45:42;;;;;;;;;;;6.70;99.90;;;;;;4992615;28;19929;-89
2021/12/27 06:48:09;;;;;;;;;;;6.70;99.90;;;;;;4989994;28;19921;-87
2021/12/27 06:50:36;;;;;;;;;;;6.70;99.90;;;;;;4976680;28;19922;-88
2021/12/27 06:53:03;;;;;;;;;;;6.70;99.90;;;;;;4985038;28;19932;-89
2021/12/27 06:55:31;;;;;;;;;;;6.80;99.90;;;;;;4975345;28;19944;-89
2021/12/27 06:57:57;;;;;;;;;;;6.80;99.90;;;;;;4988289;28;19925;-87
2021/12/27 07:00:24;;;;;;;;;;;6.80;99.90;;;;;;4974517;28;19929;-88
2021/12/27 07:02:51;;;;;;;;;;;6.90;99.90;;;;;;4974445;28;20369;-88
2021/12/27 07:05:18;;;;;;;;;;;6.80;99.90;;;;;;4973802;28;19932;-88
2021/12/27 07:07:45;;;;;;;;;;;6.90;99.90;;;;;;4989425;28;19937;-88
2021/12/27 07:10:13;;;;;;;;;;;6.80;99.90;;;;;;4989224;28;19933;-88
2021/12/27 07:12:41;;;;;;;;;;;6.90;99.90;;;;;;4976757;28;19926;-88
2021/12/27 07:15:08;;;;;;;;;;;6.80;99.90;;;;;;4986395;28;19933;-88
2021/12/27 07:17:35;;;;;;;;;;;6.90;99.90;;;;;;4989763;28;19928;-88
2021/12/27 07:20:02;;;;;;;;;;;6.90;99.90;;;;;;4987700;28;19926;-89
2021/12/27 07:22:28;;;;;;;;;;;6.90;99.90;;;;;;4988275;28;20012;-89
2021/12/27 07:24:55;;;;;;;;;;;6.90;99.90;;;;;;4977778;28;19929;-89
2021/12/27 07:27:22;;;;;;;;;;;6.90;99.90;;;;;;4987880;28;19948;-89
2021/12/27 07:29:50;;;;;;;;;;;6.90;99.90;;;;;;4986789;28;19929;-88
2021/12/27 07:32:17;;;;;;;;;;;7.00;99.90;;;;;;4972221;28;19944;-89
2021/12/27 07:34:44;;;;;;;;;;;7.00;99.90;;;;;;4992591;28;20667;-89
2021/12/27 07:37:10;;;;;;;;;;;7.10;99.90;;;;;;4994829;28;20394;-89
2021/12/27 07:39:38;;;;;;;;;;;7.00;99.90;;;;;;4998958;28;20157;-92
2021/12/27 07:42:05;;;;;;;;;;;7.00;99.90;;;;;;4982816;28;19925;-92
2021/12/27 07:44:31;;;;;;;;;;;7.00;99.90;;;;;;5000222;28;20013;-92
2021/12/27 07:47:15;;;;;;;;;;;7.10;99.90;;;;;;4998778;28;19928;-92
2021/12/27 07:49:42;;;;;;;;;;;7.00;99.90;;;;;;4998975;28;19922;-93
2021/12/27 07:52:08;;;;;;;;;;;7.00;99.90;;;;;;4998889;28;19922;-92
2021/12/27 07:54:38;;;;;;;;;;;8.90;99.90;;;;;;4999042;28;19989;-92
2021/12/27 07:57:06;;;;;;;;;;;7.00;99.90;;;;;;4984084;28;20372;-92
2021/12/27 07:59:33;;;;;;;;;;;7.00;99.90;;;;;;5000378;28;19929;-93
2021/12/27 08:02:00;;;;;;;;;;;7.80;99.90;;;;;;5000588;28;19972;-92
2021/12/27 08:04:28;;;;;;;;;;;8.30;99.90;;;;;;5001778;28;19988;-92
2021/12/27 08:06:55;;;;;;;;;;;8.80;99.90;;;;;;4999588;28;19969;-92
2021/12/27 08:09:21;;;;;;;;;;;7.20;99.90;;;;;;5002031;28;20012;-92
2021/12/27 08:11:48;;;;;;;;;;;9.30;99.90;;;;;;5004483;28;19953;-93
2021/12/27 08:14:15;;;;;;;;;;;7.40;99.90;;;;;;5022127;28;19916;-93
2021/12/27 08:16:42;;;;;;;;;;;8.00;99.90;;;;;;5010071;28;19985;-92
2021/12/27 08:19:09;;;;;;;;;;;7.60;99.90;;;;;;4999680;28;19922;-92
2021/12/27 08:21:47;;;;;;;;;;;8.90;99.90;;;;;;4969553;28;19921;-92
2021/12/27 08:24:14;;;;;;;;;;;7.90;99.90;;;;;;4983128;28;20532;-92
2021/12/27 08:27:02;;;;;;;;;;;8.20;99.90;;;;;;5002897;28;20095;-92
2021/12/27 08:29:38;;;;;;;;;;;8.20;99.90;;;;;;5016438;28;20338;-92
2021/12/27 08:32:06;;;;;;;;;;;8.40;99.90;;;;;;5002169;28;19925;-93
2021/12/27 08:34:38;;;;;;;;;;;8.10;99.90;;;;;;5001926;28;19922;-92
2021/12/27 08:37:25;;;;;;;;;;;8.50;99.90;;;;;;4988139;28;19930;-95
2021/12/27 08:40:05;;;;;;;;;;;8.80;99.90;;;;;;4998640;28;19921;-93
2021/12/27 08:42:36;;;;;;;;;;;8.60;99.90;;;;;;5002905;28;20020;-93
2021/12/27 08:45:04;;;;;;;;;;;8.60;99.90;;;;;;5005245;28;20546;-95
2021/12/27 08:47:35;;;;;;;;;;;7.50;99.90;;;;;;5014301;28;19916;-96
2021/12/27 08:50:03;;;;;;;;;;;8.40;99.90;;;;;;5019147;28;19933;-95
2021/12/27 08:52:34;;;;;;;;;;;8.20;99.90;;;;;;5008136;28;20286;-93
2021/12/27 08:55:09;;;;;;;;;;;8.60;99.90;;;;;;5004624;28;19974;-94
2021/12/27 08:57:40;;;;;;;;;;;8.30;99.90;;;;;;4983875;28;19926;-93
2021/12/27 09:00:13;;;;;;;;;;;7.30;99.90;;;;;;4999075;28;19926;-93
2021/12/27 09:02:41;;;;;;;;;;;8.90;99.90;;;;;;4983554;28;19929;-93
2021/12/27 09:05:08;;;;;;;;;;;7.80;99.90;;;;;;5001238;28;19922;-92
2021/12/27 09:07:37;;;;;;;;;;;8.20;99.90;;;;;;4999591;28;19964;-93
2021/12/27 09:10:04;;;;;;;;;;;8.80;99.90;;;;;;4992406;28;19933;-93
2021/12/27 09:12:31;;;;;;;;;;;7.70;99.90;;;;;;4971029;28;19921;-92
2021/12/27 09:14:58;;;;;;;;;;;7.90;99.90;;;;;;4981486;28;20374;-90
2021/12/27 09:17:25;;;;;;;;;;;10.10;99.90;;;;;;4995448;28;19968;-90
2021/12/27 09:19:52;;;;;;;;;;;8.20;99.90;;;;;;4995731;28;19921;-93
2021/12/27 09:22:22;;;;;;;;;;;9.60;99.90;;;;;;4996075;28;19925;-91
2021/12/27 09:24:57;;;;;;;;;;;6.10;99.90;;;;;;4980507;28;19926;-91
2021/12/27 09:27:24;;;;;;;;;;;8.50;99.90;;;;;;4981294;28;20298;-92
2021/12/27 09:29:55;;;;;;;;;;;7.60;99.90;;;;;;4996117;28;19922;-91
2021/12/27 09:32:23;;;;;;;;;;;8.50;99.90;;;;;;4979304;28;19929;-93
2021/12/27 09:34:58;;;;;;;;;;;6.20;99.90;;;;;;4995149;28;19922;-91
2021/12/27 09:37:28;;;;;;;;;;;8.70;99.90;;;;;;4978592;28;19925;-91
2021/12/27 09:39:57;;;;;;;;;;;8.70;99.90;;;;;;4978441;28;20455;-92
2021/12/27 09:42:30;;;;;;;;;;;8.60;99.90;;;;;;4994801;28;19972;-92
2021/12/27 09:45:05;;;;;;;;;;;8.50;99.90;;;;;;4996456;28;20258;-91
2021/12/27 09:47:47;;;;;;;;;;;8.70;99.90;;;;;;4980033;28;19968;-92
2021/12/27 09:50:23;;;;;;;;;;;8.80;99.90;;;;;;4995166;28;19925;-94
2021/12/27 09:52:55;;;;;;;;;;;9.90;99.90;;;;;;4979507;28;19922;-93
2021/12/27 09:55:25;;;;;;;;;;;8.60;99.90;;;;;;4995356;28;20037;-92
2021/12/27 10:01:06;;;;;;;;;;;9.10;99.90;;;;;;4997108;28;19921;-92
2021/12/27 10:03:44;;;;;;;;;;;9.50;99.90;;;;;;4979045;28;19922;-92
2021/12/27 10:06:11;;;;;;;;;;;9.20;99.90;;;;;;5015409;28;19969;-96
2021/12/27 10:08:38;;;;;;;;;;;9.30;99.90;;;;;;4999343;28;19922;-91
2021/12/27 10:11:05;;;;;;;;;;;9.30;99.90;;;;;;5000046;28;19936;-91
2021/12/27 10:13:35;;;;;;;;;;;10.50;99.90;;;;;;4995135;28;20025;-90
2021/12/27 10:16:03;;;;;;;;;;;9.20;99.90;;;;;;4973741;28;19980;-91
2021/12/27 10:18:30;;;;;;;;;;;9.10;99.90;;;;;;4979010;28;19937;-90
2021/12/27 10:20:59;;;;;;;;;;;9.50;99.90;;;;;;4976427;28;20393;-90
2021/12/27 10:23:28;;;;;;;;;;;9.50;99.90;;;;;;4975820;28;19932;-90
2021/12/27 10:25:57;;;;;;;;;;;9.70;99.90;;;;;;4994956;28;19928;-91
2021/12/27 10:28:27;;;;;;;;;;;9.80;99.90;;;;;;4977104;28;20455;-91
2021/12/27 10:31:01;;;;;;;;;;;10.00;99.90;;;;;;4994334;28;19997;-91
2021/12/27 10:33:28;;;;;;;;;;;10.10;99.90;;;;;;4976804;28;20389;-91
2021/12/27 10:35:58;;;;;;;;;;;10.20;99.90;;;;;;4976234;28;19936;-93
2021/12/27 10:38:26;;;;;;;;;;;10.20;99.90;;;;;;4994226;28;19930;-91
2021/12/27 10:40:56;;;;;;;;;;;10.20;99.90;;;;;;4976361;28;19925;-91
2021/12/27 10:43:34;;;;;;;;;;;10.10;99.90;;;;;;4983691;28;20614;-91
2021/12/27 10:46:06;;;;;;;;;;;10.10;99.90;;;;;;4995235;28;20008;-91
2021/12/27 10:48:54;;;;;;;;;;;10.10;99.90;;;;;;4993276;28;19929;-91
2021/12/27 10:51:22;;;;;;;;;;;10.10;99.90;;;;;;4993239;28;19994;-91
2021/12/27 10:53:55;;;;;;;;;;;10.20;99.90;;;;;;4991615;28;20004;-93
2021/12/27 10:56:22;;;;;;;;;;;10.10;99.90;;;;;;4994512;28;20487;-92
2021/12/27 10:58:50;;;;;;;;;;;10.30;99.90;;;;;;4979719;28;19957;-93
2021/12/27 11:01:21;;;;;;;;;;;10.20;99.90;;;;;;4983277;28;19921;-92
2021/12/27 11:03:51;;;;;;;;;;;10.30;99.90;;;;;;4996148;28;19933;-96
2021/12/27 11:06:20;;;;;;;;;;;10.50;99.90;;;;;;4990284;28;19922;-92
2021/12/27 11:09:06;;;;;;;;;;;10.10;99.90;;;;;;4979196;28;19937;-92
2021/12/27 11:11:34;;;;;;;;;;;11.60;99.90;;;;;;4980911;28;19964;-92
2021/12/27 11:14:06;;;;;;;;;;;11.30;99.90;;;;;;4985402;28;19972;-93
2021/12/27 11:16:47;;;;;;;;;;;12.20;99.90;;;;;;4985928;28;19925;-93
2021/12/27 11:22:38;;;;;;;;;;;12.30;99.90;;;;;;4990043;28;19945;-93
2021/12/27 11:25:13;;;;;;;;;;;8.90;99.90;;;;;;5003040;28;19926;-94
2021/12/27 11:27:49;;;;;;;;;;;11.60;99.90;;;;;;5002915;28;19922;-93
2021/12/27 11:30:30;;;;;;;;;;;11.40;99.90;;;;;;4987717;28;20061;-92
2021/12/27 11:33:12;;;;;;;;;;;11.10;99.90;;;;;;5004787;28;20020;-94
2021/12/27 11:39:04;;;;;;;;;;;11.40;99.90;;;;;;5010526;28;19937;-93
2021/12/27 11:44:53;;;;;;;;;;;10.40;99.90;;;;;;5005960;28;19925;-93
2021/12/27 11:59:59;;;;;;;;;;;10.40;99.90;;;;;;4994631;28;19933;-93
2021/12/27 12:02:37;;;;;;;;;;;10.90;99.90;;;;;;5003541;28;19922;-93
2021/12/27 12:05:35;;;;;;;;;;;10.30;99.90;;;;;;4987153;28;19980;-94
2021/12/27 12:08:03;;;;;;;;;;;10.40;99.90;;;;;;5002818;28;19921;-91
2021/12/27 12:10:33;;;;;;;;;;;10.50;99.90;;;;;;5005384;28;19937;-95
2021/12/27 12:13:25;;;;;;;;;;;11.00;99.90;;;;;;5002841;28;19926;-93
2021/12/27 12:16:09;;;;;;;;;;;11.20;99.90;;;;;;4982293;28;19922;-91
2021/12/27 12:21:48;;;;;;;;;;;11.30;99.90;;;;;;4990679;28;20470;-94
2021/12/27 12:24:19;;;;;;;;;;;10.80;99.90;;;;;;4989872;28;19932;-91
2021/12/27 12:26:51;;;;;;;;;;;11.10;99.90;;;;;;5007890;28;19921;-92
2021/12/27 12:29:20;;;;;;;;;;;10.90;99.90;;;;;;4991357;28;19976;-92
2021/12/27 12:31:47;;;;;;;;;;;11.60;99.90;;;;;;4991958;28;19945;-94
2021/12/27 12:34:19;;;;;;;;;;;11.50;99.90;;;;;;5007996;28;19929;-95
2021/12/27 12:36:52;;;;;;;;;;;11.50;99.90;;;;;;5007064;28;19944;-93
2021/12/27 12:39:22;;;;;;;;;;;11.20;99.90;;;;;;5007773;28;19950;-92
2021/12/27 12:41:49;;;;;;;;;;;11.20;99.90;;;;;;5004689;28;19925;-91
2021/12/27 12:44:17;;;;;;;;;;;10.90;99.90;;;;;;4994031;28;19996;-91
2021/12/27 12:46:46;;;;;;;;;;;10.80;99.90;;;;;;5013753;28;19906;-93
2021/12/27 12:49:14;;;;;;;;;;;10.80;99.90;;;;;;5001383;28;19937;-92
2021/12/27 12:51:45;;;;;;;;;;;10.70;99.90;;;;;;5002556;28;19972;-91
2021/12/27 12:54:23;;;;;;;;;;;10.80;99.90;;;;;;5000288;28;19932;-90
2021/12/27 12:56:55;;;;;;;;;;;10.70;99.90;;;;;;4984175;28;19925;-91
2021/12/27 12:59:25;;;;;;;;;;;11.10;99.90;;;;;;4993009;28;19930;-92
2021/12/27 13:02:06;;;;;;;;;;;10.90;99.90;;;;;;4994890;28;19909;-90
2021/12/27 13:04:40;;;;;;;;;;;10.80;99.90;;;;;;5009840;28;19921;-89
2021/12/27 13:07:09;;;;;;;;;;;10.80;99.90;;;;;;4993786;28;19949;-91
2021/12/27 13:09:40;;;;;;;;;;;11.60;99.90;;;;;;4984538;28;19925;-91
2021/12/27 13:12:07;;;;;;;;;;;10.80;99.90;;;;;;4985575;28;19928;-91
2021/12/27 13:14:34;;;;;;;;;;;10.90;99.90;;;;;;4980709;28;19921;-91
2021/12/27 13:17:10;;;;;;;;;;;10.80;99.90;;;;;;4989149;28;19948;-91
2021/12/27 13:19:52;;;;;;;;;;;10.80;99.90;;;;;;5005597;28;19926;-90
2021/12/27 13:22:34;;;;;;;;;;;10.70;99.90;;;;;;4989187;28;19997;-91
2021/12/27 13:25:02;;;;;;;;;;;10.70;99.90;;;;;;4989047;28;20001;-90
2021/12/27 13:27:30;;;;;;;;;;;10.50;99.90;;;;;;4990375;28;19932;-90
2021/12/27 13:30:03;;;;;;;;;;;11.60;99.90;;;;;;4983949;28;20027;-90
2021/12/27 13:32:32;;;;;;;;;;;10.50;99.90;;;;;;5011148;28;20360;-91
2021/12/27 13:34:59;;;;;;;;;;;10.50;99.90;;;;;;5007224;28;19947;-91
2021/12/27 13:37:26;;;;;;;;;;;10.50;99.90;;;;;;4996031;28;19926;-91
2021/12/27 13:40:04;;;;;;;;;;;10.40;99.90;;;;;;4981791;28;20302;-90
2021/12/27 13:42:31;;;;;;;;;;;10.90;99.90;;;;;;4980780;28;20134;-90
2021/12/27 13:45:06;;;;;;;;;;;10.30;99.90;;;;;;5006315;28;19996;-91
2021/12/27 13:47:33;;;;;;;;;;;11.30;99.90;;;;;;4996397;28;19922;-92
2021/12/27 13:50:01;;;;;;;;;;;11.40;99.90;;;;;;5013229;28;20507;-91
2021/12/27 13:52:27;;;;;;;;;;;10.50;99.90;;;;;;5011785;28;19937;-92
2021/12/27 13:55:17;;;;;;;;;;;10.50;99.90;;;;;;5007966;28;19922;-91
2021/12/27 13:57:47;;;;;;;;;;;10.40;99.90;;;;;;4999345;28;19921;-91
2021/12/27 14:00:14;;;;;;;;;;;10.40;99.90;;;;;;4987305;28;19928;-90
2021/12/27 14:02:45;;;;;;;;;;;10.70;99.90;;;;;;5004659;28;19972;-90
2021/12/27 14:05:13;;;;;;;;;;;10.40;99.90;;;;;;4981401;28;19988;-91
2021/12/27 14:07:48;;;;;;;;;;;10.80;99.90;;;;;;5010588;28;19909;-92
2021/12/27 14:10:20;;;;;;;;;;;10.70;99.90;;;;;;4972441;28;19961;-91
2021/12/27 14:13:00;;;;;;;;;;;10.40;99.90;;;;;;5004028;28;19925;-92
2021/12/27 14:19:17;;;;;;;;;;;11.00;99.90;;;;;;5018075;28;20452;-93
2021/12/27 14:22:11;;;;;;;;;;;10.40;99.90;;;;;;5017497;28;19948;-94
2021/12/27 14:24:56;;;;;;;;;;;10.40;99.90;;;;;;5000629;28;19909;-92
2021/12/27 14:27:42;;;;;;;;;;;9.60;99.90;;;;;;5001061;28;19920;-94
2021/12/27 14:30:19;;;;;;;;;;;10.30;99.90;;;;;;5000895;28;19933;-94
2021/12/27 14:32:49;;;;;;;;;;;10.40;99.90;;;;;;5000561;28;19929;-93
2021/12/27 14:35:32;;;;;;;;;;;9.20;99.90;;;;;;5021417;28;19922;-93
2021/12/27 14:38:00;;;;;;;;;;;10.20;99.90;;;;;;5006174;28;19921;-93
2021/12/27 14:40:28;;;;;;;;;;;10.60;99.90;;;;;;5015340;28;19941;-93
2021/12/27 14:42:55;;;;;;;;;;;10.10;99.90;;;;;;4999640;28;19910;-92
2021/12/27 14:45:25;;;;;;;;;;;10.10;99.90;;;;;;5015334;28;19921;-93
2021/12/27 14:48:06;;;;;;;;;;;10.00;99.90;;;;;;5013742;28;19909;-94
2021/12/27 14:50:35;;;;;;;;;;;10.00;99.90;;;;;;5013397;28;19992;-93
2021/12/27 14:53:03;;;;;;;;;;;10.00;99.90;;;;;;5017208;28;19921;-92
2021/12/27 14:55:30;;;;;;;;;;;9.90;99.90;;;;;;5012728;28;19941;-93
2021/12/27 14:57:58;;;;;;;;;;;10.00;99.90;;;;;;4999257;28;19930;-92
2021/12/27 15:00:31;;;;;;;;;;;11.10;99.90;;;;;;5006644;28;19976;-93
2021/12/27 15:02:58;;;;;;;;;;;9.90;99.90;;;;;;5019483;23;20071;-71
2021/12/27 15:05:25;;;;;;;;;;;9.90;99.90;;;;;;5008606;28;19928;-71
2021/12/27 15:07:51;;;;;;;;;;;9.80;99.90;;;;;;4989893;28;19932;-70
2021/12/27 15:10:18;;;;;;;;;;;9.80;99.90;;;;;;4978997;28;19933;-71
2021/12/27 15:12:45;;;;;;;;;;;9.70;99.90;;;;;;4977110;28;19969;-71
2021/12/27 15:15:18;;;;;;;;;;;9.70;99.90;;;;;;4981114;28;19926;-70